Depesze METAR z lotnisk oddalonych od Rybnika do 200 kilometrów

LKMT - Ostrava/Mosnov, Czech Republic
Distance from station: SSW 55km
Updated: Tue, 19/06/2018 18:00 CEST
Clear
Clear
 Wind from varies
Wind: varies 4 km/h
Temperature: 25°C
Dew Point: 13°C
Humidity: 47%
Barometer: 1021 hPa
Summary: Clear
Visibility: greater than 10 km
2018/06/19 16:00 LKMT 191600Z VRB02KT CAVOK 25/13 Q1021 NOSIG
EPKT - Katowice/Pyrzowi, Poland
Distance from station: NE 58km
Updated: Tue, 19/06/2018 18:00 CEST
Clear
Clear
 Wind from NW
Wind: NW 11 km/h
Temperature: 24°C
Dew Point: 10°C
Humidity: 41%
Barometer: 1021 hPa
Summary: Clear
Visibility: greater than 10 km
2018/06/19 16:00 EPKT 191600Z 31006KT CAVOK 24/10 Q1021
 
EPKK - Krakow/Balice, Poland
Distance from station: E 91km
Updated: Tue, 19/06/2018 18:00 CEST
Few Clouds
Few Clouds
 Wind from W
Wind: W 13 km/h
Temperature: 26°C
Dew Point: 12°C
Humidity: 42%
Barometer: 1020 hPa
Clouds: Few Clouds
Visibility: 10 km
Cloud details: Few Clouds 1829 m
2018/06/19 16:00 EPKK 191600Z 26007KT 230V300 9999 FEW060 26/12 Q1020
LZZI - Zilina, Slovakia
Distance from station: S 95km
Updated: Tue, 19/06/2018 18:00 CEST
Clear
Clear
 Wind from N
Wind: N 9 km/h
Temperature: 26°C
Dew Point: 12°C
Humidity: 42%
Barometer: 1020 hPa
Summary: Clear
Visibility: greater than 10 km
2018/06/19 16:00 LZZI 191600Z 01005KT 330V030 CAVOK 26/12 Q1020
 
LKKU - Kunovice, Czech Republic
Distance from station: SW 139km
Updated: Tue, 19/06/2018 16:00 CEST
NOT Current
Clear
Clear
 Wind from NNE
Wind: NNE 13 km/h
Temperature: 27°C
Dew Point: 10°C
Humidity: 34%
Barometer: 1020 hPa
Summary: Clear
Visibility: greater than 10 km
2018/06/19 14:00 LKKU 191400Z 03007KT 350V080 CAVOK 27/10 Q1020
EPWR - Wroclaw/Strachow, Poland
Distance from station: NW 163km
Updated: Tue, 19/06/2018 18:00 CEST
Clear
Clear
 Wind from WNW
Wind: WNW 22 km/h
Temperature: 25°C
Dew Point: 13°C
Humidity: 47%
Barometer: 1021 hPa
Summary: Clear
Visibility: greater than 10 km
2018/06/19 16:00 EPWR 191600Z 29012KT CAVOK 25/13 Q1021
 
LZSL - Sliac, Slovakia
Distance from station: SSE 168km
Updated: Tue, 19/06/2018 18:00 CEST
Few Clouds
Few Clouds
 Wind from E
Wind: E 9 km/h
Temperature: 28°C
Heat Index: 28°C
Dew Point: 14°C
Humidity: 42%
Barometer: 1019 hPa
Clouds: Few Clouds
Visibility: 10 km
Cloud details: Few Clouds 1859 m
2018/06/19 16:00 LZSL 191600Z 09005KT 060V120 9999 FEW061 28/14 Q1019
LZTT - Poprad/Tatry, Slovakia
Distance from station: SE 168km
Updated: Tue, 19/06/2018 18:00 CEST
Few Clouds
Few Clouds
 Wind from NNE
Wind: NNE 22 km/h
Temperature: 21°C
Dew Point: 14°C
Humidity: 64%
Barometer: 1021 hPa
Clouds: Few Clouds
Visibility: 10 km
Cloud details: Few Clouds 1311 m
2018/06/19 16:00 LZTT 191600Z 03012KT 9999 FEW043 21/14 Q1021 NOSIG
 
LKTB - Brno/Turany, Czech Republic
Distance from station: SW 170km
Updated: Tue, 19/06/2018 18:00 CEST
Clear
Clear
 Wind from NNW
Wind: NNW 19 km/h
Temperature: 27°C
Dew Point: 10°C
Humidity: 34%
Barometer: 1021 hPa
Summary: Clear
Visibility: greater than 10 km
2018/06/19 16:00 LKTB 191600Z 34010KT 310V020 CAVOK 27/10 Q1021 NOSIG
LZPP - Piestany, Slovakia
Distance from station: SSW 171km
Updated: Tue, 19/06/2018 18:00 CEST
Clear
Clear
 Wind from N
Wind: N 20 km/h
Temperature: 27°C
Dew Point: 12°C
Humidity: 39%
Barometer: 1020 hPa
Summary: Clear
Visibility: greater than 10 km
2018/06/19 16:00 LZPP 191600Z 35011KT CAVOK 27/12 Q1020
 
EPLL - Lodz/Lublinek, Poland
Distance from station: NNE 191km
Updated: Tue, 19/06/2018 18:00 CEST
Clear
Clear
 Wind from WSW
Wind: WSW 19 km/h
Temperature: 24°C
Dew Point: 12°C
Humidity: 47%
Barometer: 1020 hPa
Summary: Clear
Visibility: greater than 10 km
2018/06/19 16:00 EPLL 191600Z 25010KT 210V270 CAVOK 24/12 Q1020
LKPD - Pardubice, Czech Republic
Distance from station: W 200km
Updated: Tue, 19/06/2018 18:00 CEST
Clear
Clear
 Wind from WNW
Wind: WNW 15 km/h
Temperature: 24°C
Dew Point: 11°C
Humidity: 44%
Barometer: 1022 hPa
Summary: Clear
Visibility: greater than 10 km
2018/06/19 16:00 LKPD 191600Z 30008KT CAVOK 24/11 Q1022 NOSIG RMK BLU BLU

Metar display script from Saratoga-Weather.org